Time;durP1;ratioP1;P1;durP2;ratioP2;P2;SDS_P1;SDS_P2;PMS_P1;PMS_P2;Temp;Humidity;BMP_temperature;BMP_pressure;BME280_temperature;BME280_humidity;BME280_pressure;Samples;Min_cycle;Max_cycle;Signal;HPM_P1;HPM_P2
2022/07/23 00:00:14;;;;;;;7.38;3.22;;;;;;;;;;4975312;28;20058;-72
2022/07/23 00:02:40;;;;;;;6.68;3.13;;;;;;;;;;4975325;28;20465;-72
2022/07/23 00:05:06;;;;;;;9.80;3.53;;;;;;;;;;4975308;28;20033;-72
2022/07/23 00:07:32;;;;;;;8.55;3.85;;;;;;;;;;4975254;28;20086;-73
2022/07/23 00:09:58;;;;;;;8.70;3.13;;;;;;;;;;4975165;28;20089;-71
2022/07/23 00:12:24;;;;;;;7.68;3.17;;;;;;;;;;4975136;28;20027;-72
2022/07/23 00:14:50;;;;;;;6.47;3.33;;;;;;;;;;4975017;28;20027;-71
2022/07/23 00:17:17;;;;;;;4.97;3.08;;;;;;;;;;4975072;28;20026;-72
2022/07/23 00:19:43;;;;;;;7.38;3.40;;;;;;;;;;4975568;28;20022;-70
2022/07/23 00:22:09;;;;;;;6.90;2.90;;;;;;;;;;4975272;28;20038;-71
2022/07/23 00:24:35;;;;;;;6.22;3.70;;;;;;;;;;4974665;28;20377;-70
2022/07/23 00:27:00;;;;;;;6.25;3.28;;;;;;;;;;4974596;28;20031;-71
2022/07/23 00:29:26;;;;;;;7.28;3.00;;;;;;;;;;4974902;28;20027;-74
2022/07/23 00:31:52;;;;;;;6.22;3.00;;;;;;;;;;4975091;28;20495;-73
2022/07/23 00:34:18;;;;;;;6.93;3.40;;;;;;;;;;4974754;28;20073;-71
2022/07/23 00:36:44;;;;;;;6.43;3.17;;;;;;;;;;4974997;28;20030;-73
2022/07/23 00:39:11;;;;;;;6.40;3.22;;;;;;;;;;4974738;28;20437;-71
2022/07/23 00:41:36;;;;;;;6.47;2.88;;;;;;;;;;4974733;28;20432;-72
2022/07/23 00:44:35;;;;;;;4.40;2.75;;;;;;;;;;4974622;28;20029;-73
2022/07/23 00:47:01;;;;;;;6.15;3.00;;;;;;;;;;4932309;28;20386;-72
2022/07/23 00:49:28;;;;;;;5.13;2.90;;;;;;;;;;4975086;28;20007;-73
2022/07/23 00:51:54;;;;;;;5.47;3.10;;;;;;;;;;4974567;28;20031;-71
2022/07/23 00:54:22;;;;;;;5.45;3.20;;;;;;;;;;4974810;28;20029;-71
2022/07/23 00:56:48;;;;;;;9.10;3.38;;;;;;;;;;4974660;28;20034;-71
2022/07/23 00:59:14;;;;;;;7.40;3.50;;;;;;;;;;4974738;28;20023;-73
2022/07/23 01:01:40;;;;;;;5.95;2.95;;;;;;;;;;4974362;28;20018;-71
2022/07/23 01:04:06;;;;;;;7.40;3.88;;;;;;;;;;4974143;28;20054;-71
2022/07/23 01:06:36;;;;;;;5.85;3.00;;;;;;;;;;4974382;28;20027;-73
2022/07/23 01:09:02;;;;;;;5.53;3.38;;;;;;;;;;4974358;28;20090;-72
2022/07/23 01:11:28;;;;;;;6.68;3.70;;;;;;;;;;4974606;28;20031;-72
2022/07/23 01:13:54;;;;;;;7.15;3.10;;;;;;;;;;4974853;28;20041;-72
2022/07/23 01:16:20;;;;;;;3.95;3.28;;;;;;;;;;4974220;28;20023;-72
2022/07/23 01:18:46;;;;;;;4.68;3.28;;;;;;;;;;4974277;28;20485;-72
2022/07/23 01:21:13;;;;;;;5.38;3.53;;;;;;;;;;4974249;28;20026;-73
2022/07/23 01:23:39;;;;;;;8.57;4.43;;;;;;;;;;4974230;28;20026;-71
2022/07/23 01:26:05;;;;;;;6.45;3.17;;;;;;;;;;4974206;28;20073;-71
2022/07/23 01:28:31;;;;;;;5.32;3.22;;;;;;;;;;4974157;28;20393;-72
2022/07/23 01:30:57;;;;;;;7.38;3.35;;;;;;;;;;4974148;28;20026;-71
2022/07/23 01:33:23;;;;;;;5.88;3.60;;;;;;;;;;4974147;28;20035;-71
2022/07/23 01:35:49;;;;;;;6.50;3.60;;;;;;;;;;4974047;28;20504;-73
2022/07/23 01:38:15;;;;;;;7.95;3.72;;;;;;;;;;4977917;28;20496;-70
2022/07/23 01:40:41;;;;;;;8.73;4.75;;;;;;;;;;4977956;28;20029;-72
2022/07/23 01:43:07;;;;;;;8.98;3.95;;;;;;;;;;4978199;28;20106;-71
2022/07/23 01:45:33;;;;;;;5.30;3.25;;;;;;;;;;4960483;28;20039;-72
2022/07/23 01:47:59;;;;;;;7.53;3.40;;;;;;;;;;4977768;28;20491;-73
2022/07/23 01:50:25;;;;;;;9.52;3.70;;;;;;;;;;4978259;28;20109;-72
2022/07/23 01:52:51;;;;;;;6.80;3.72;;;;;;;;;;4960378;28;20122;-71
2022/07/23 01:55:17;;;;;;;5.95;3.25;;;;;;;;;;4977615;28;20110;-71
2022/07/23 01:57:43;;;;;;;5.65;3.90;;;;;;;;;;4977619;28;20023;-71
2022/07/23 02:00:09;;;;;;;6.22;3.58;;;;;;;;;;4977759;28;20078;-71
2022/07/23 02:02:35;;;;;;;6.15;3.65;;;;;;;;;;4960433;28;20045;-72
2022/07/23 02:05:01;;;;;;;8.57;3.53;;;;;;;;;;4959925;28;20031;-71
2022/07/23 02:07:28;;;;;;;5.95;3.65;;;;;;;;;;4977625;28;20113;-72
2022/07/23 02:09:54;;;;;;;6.18;4.00;;;;;;;;;;4977403;28;20544;-72
2022/07/23 02:12:20;;;;;;;6.75;3.80;;;;;;;;;;4977347;28;20026;-70
2022/07/23 02:14:47;;;;;;;8.82;3.60;;;;;;;;;;4977220;28;20079;-73
2022/07/23 02:17:13;;;;;;;6.63;3.08;;;;;;;;;;4977535;28;20027;-73
2022/07/23 02:19:39;;;;;;;5.85;3.40;;;;;;;;;;4977243;28;20037;-72
2022/07/23 02:22:05;;;;;;;4.95;3.35;;;;;;;;;;4977193;28;20465;-71
2022/07/23 02:24:31;;;;;;;8.38;3.80;;;;;;;;;;4977702;28;20025;-74
2022/07/23 02:26:57;;;;;;;7.70;4.05;;;;;;;;;;4977149;28;20488;-71
2022/07/23 02:29:23;;;;;;;5.82;3.40;;;;;;;;;;4959687;28;20026;-72
2022/07/23 02:31:49;;;;;;;8.82;4.05;;;;;;;;;;4977300;28;20035;-73
2022/07/23 02:34:15;;;;;;;6.68;3.90;;;;;;;;;;4977032;28;20404;-72
2022/07/23 02:36:41;;;;;;;8.35;4.20;;;;;;;;;;4976840;28;20034;-70
2022/07/23 02:39:07;;;;;;;8.52;3.67;;;;;;;;;;4976850;28;20023;-72
2022/07/23 02:41:33;;;;;;;8.55;4.38;;;;;;;;;;4977113;28;20037;-73
2022/07/23 02:43:59;;;;;;;8.35;3.83;;;;;;;;;;4976755;28;20027;-73
2022/07/23 02:46:25;;;;;;;5.80;3.42;;;;;;;;;;4976834;28;20073;-71
2022/07/23 02:48:51;;;;;;;10.20;3.78;;;;;;;;;;4975715;28;20034;-72
2022/07/23 02:51:17;;;;;;;6.70;3.88;;;;;;;;;;4977215;28;20449;-72
2022/07/23 02:53:43;;;;;;;5.50;3.80;;;;;;;;;;4976909;28;20027;-73
2022/07/23 02:56:09;;;;;;;6.95;4.05;;;;;;;;;;4976781;28;20038;-71
2022/07/23 02:58:35;;;;;;;6.65;4.00;;;;;;;;;;4959139;28;20397;-72
2022/07/23 03:01:01;;;;;;;9.73;4.80;;;;;;;;;;4959067;28;20027;-73
2022/07/23 03:03:27;;;;;;;7.50;4.07;;;;;;;;;;4976200;28;20046;-73
2022/07/23 03:05:53;;;;;;;9.60;3.78;;;;;;;;;;4976657;28;20081;-72
2022/07/23 03:08:19;;;;;;;9.82;4.45;;;;;;;;;;4976629;28;20027;-72
2022/07/23 03:10:45;;;;;;;4.72;3.58;;;;;;;;;;4976301;28;20038;-72
2022/07/23 03:13:11;;;;;;;5.32;3.90;;;;;;;;;;4976562;28;20023;-72
2022/07/23 03:15:37;;;;;;;13.05;4.68;;;;;;;;;;4976189;28;20035;-71
2022/07/23 03:18:03;;;;;;;7.30;3.90;;;;;;;;;;4976438;28;20022;-74
2022/07/23 03:20:29;;;;;;;6.28;3.53;;;;;;;;;;4976650;28;20027;-71
2022/07/23 03:22:56;;;;;;;4.82;3.47;;;;;;;;;;4976359;28;20023;-71
2022/07/23 03:25:22;;;;;;;4.95;3.45;;;;;;;;;;4976294;28;20057;-71
2022/07/23 03:27:48;;;;;;;7.55;4.03;;;;;;;;;;4976275;28;20390;-70
2022/07/23 03:30:14;;;;;;;6.10;3.40;;;;;;;;;;4975982;28;20496;-71
2022/07/23 03:32:40;;;;;;;8.63;4.60;;;;;;;;;;4975946;28;20114;-71
2022/07/23 03:35:06;;;;;;;7.72;4.22;;;;;;;;;;4975808;28;20126;-70
2022/07/23 03:37:32;;;;;;;6.93;4.18;;;;;;;;;;4976341;28;20358;-70
2022/07/23 03:39:58;;;;;;;7.88;4.03;;;;;;;;;;4975762;28;20031;-71
2022/07/23 03:42:24;;;;;;;7.10;4.20;;;;;;;;;;4975773;28;20102;-72
2022/07/23 03:44:50;;;;;;;6.93;3.92;;;;;;;;;;4975708;28;20033;-72
2022/07/23 03:47:17;;;;;;;6.22;3.90;;;;;;;;;;4975908;28;20027;-72
2022/07/23 03:49:43;;;;;;;8.35;4.10;;;;;;;;;;4976377;28;20023;-70
2022/07/23 03:52:09;;;;;;;7.45;4.50;;;;;;;;;;4975566;28;20093;-71
2022/07/23 03:54:35;;;;;;;6.50;4.18;;;;;;;;;;4975517;28;20062;-71
2022/07/23 03:57:01;;;;;;;7.43;4.28;;;;;;;;;;4975410;28;20105;-73
2022/07/23 03:59:27;;;;;;;9.85;4.20;;;;;;;;;;4975140;28;20461;-72
2022/07/23 04:01:53;;;;;;;7.63;3.92;;;;;;;;;;4975376;28;20015;-70
2022/07/23 04:04:19;;;;;;;8.43;4.45;;;;;;;;;;4975001;28;20039;-73
2022/07/23 04:06:45;;;;;;;8.15;4.53;;;;;;;;;;4975256;28;20485;-71
2022/07/23 04:09:11;;;;;;;7.93;4.53;;;;;;;;;;4975188;28;20033;-72
2022/07/23 04:11:37;;;;;;;12.18;4.70;;;;;;;;;;4975177;28;20039;-72
2022/07/23 04:14:03;;;;;;;9.02;4.38;;;;;;;;;;4975401;28;20058;-73
2022/07/23 04:16:31;;;;;;;6.88;4.22;;;;;;;;;;4975277;28;20033;-72
2022/07/23 04:18:57;;;;;;;8.75;4.43;;;;;;;;;;4975058;28;20429;-73
2022/07/23 04:21:23;;;;;;;6.47;3.72;;;;;;;;;;4975028;28;20023;-72
2022/07/23 04:23:49;;;;;;;6.05;3.78;;;;;;;;;;4974980;28;20076;-72
2022/07/23 04:26:15;;;;;;;10.35;4.88;;;;;;;;;;4974913;28;20030;-70
2022/07/23 04:28:42;;;;;;;5.85;4.20;;;;;;;;;;4974875;28;20132;-70
2022/07/23 04:31:08;;;;;;;5.25;3.83;;;;;;;;;;4974866;28;20031;-70
2022/07/23 04:33:34;;;;;;;8.50;4.57;;;;;;;;;;4974861;28;20030;-72
2022/07/23 04:36:00;;;;;;;7.38;4.20;;;;;;;;;;4975258;28;20023;-70
2022/07/23 04:38:26;;;;;;;7.25;3.72;;;;;;;;;;4974772;28;20030;-70
2022/07/23 04:40:52;;;;;;;8.50;4.43;;;;;;;;;;4957410;28;20030;-72
2022/07/23 04:43:18;;;;;;;7.88;4.22;;;;;;;;;;4975211;28;20023;-70
2022/07/23 04:45:44;;;;;;;8.40;4.35;;;;;;;;;;4974683;28;20043;-71
2022/07/23 04:48:10;;;;;;;5.72;3.63;;;;;;;;;;4974609;28;20100;-72
2022/07/23 04:50:36;;;;;;;7.65;4.60;;;;;;;;;;4975112;28;20075;-72
2022/07/23 04:53:02;;;;;;;6.65;4.18;;;;;;;;;;4974563;28;20657;-72
2022/07/23 04:55:28;;;;;;;6.82;4.15;;;;;;;;;;4974425;28;20117;-72
2022/07/23 04:57:54;;;;;;;11.07;4.63;;;;;;;;;;4974491;28;20062;-71
2022/07/23 05:00:20;;;;;;;7.32;4.25;;;;;;;;;;4974561;28;20050;-70
2022/07/23 05:02:46;;;;;;;4.25;3.28;;;;;;;;;;4974235;28;20121;-71
2022/07/23 05:05:12;;;;;;;6.20;3.72;;;;;;;;;;4974436;28;20113;-74
2022/07/23 05:07:38;;;;;;;9.50;3.75;;;;;;;;;;4974432;28;20096;-70
2022/07/23 05:10:05;;;;;;;6.90;3.90;;;;;;;;;;4974358;28;20485;-70
2022/07/23 05:12:32;;;;;;;9.13;4.97;;;;;;;;;;4974075;28;20027;-72
2022/07/23 05:14:58;;;;;;;6.68;4.30;;;;;;;;;;4974271;28;20082;-70
2022/07/23 05:17:24;;;;;;;6.50;3.72;;;;;;;;;;4974604;28;20034;-73
2022/07/23 05:19:50;;;;;;;8.80;4.30;;;;;;;;;;4974271;28;20049;-72
2022/07/23 05:22:16;;;;;;;8.20;4.30;;;;;;;;;;4974273;28;20481;-72
2022/07/23 05:24:43;;;;;;;9.90;4.22;;;;;;;;;;4974553;28;20027;-72
2022/07/23 05:27:09;;;;;;;7.38;3.80;;;;;;;;;;4974509;28;20540;-70
2022/07/23 05:29:35;;;;;;;5.90;3.78;;;;;;;;;;4974211;28;20055;-71
2022/07/23 05:32:01;;;;;;;8.70;4.20;;;;;;;;;;4974457;28;20027;-71
2022/07/23 05:34:27;;;;;;;6.68;4.20;;;;;;;;;;4974722;28;20484;-70
2022/07/23 05:36:53;;;;;;;7.90;4.03;;;;;;;;;;4974053;28;20035;-72
2022/07/23 05:39:19;;;;;;;7.68;4.05;;;;;;;;;;4974380;28;20055;-73
2022/07/23 05:41:45;;;;;;;7.90;4.18;;;;;;;;;;4974342;28;20027;-70
2022/07/23 05:44:11;;;;;;;7.72;4.15;;;;;;;;;;4974058;28;20046;-73
2022/07/23 05:46:37;;;;;;;11.45;4.70;;;;;;;;;;4974114;28;20030;-70
2022/07/23 05:49:03;;;;;;;6.63;4.20;;;;;;;;;;4974298;28;20044;-72
2022/07/23 05:51:29;;;;;;;8.82;4.40;;;;;;;;;;4974763;28;20031;-70
2022/07/23 05:53:55;;;;;;;8.73;5.10;;;;;;;;;;4956667;28;20397;-71
2022/07/23 05:56:21;;;;;;;6.35;3.95;;;;;;;;;;4973923;28;20030;-71
2022/07/23 05:58:47;;;;;;;5.72;4.22;;;;;;;;;;4973991;28;20026;-73
2022/07/23 06:01:13;;;;;;;7.35;3.88;;;;;;;;;;4973869;28;20082;-72
2022/07/23 06:03:39;;;;;;;6.97;3.85;;;;;;;;;;4956326;28;20424;-70
2022/07/23 06:06:06;;;;;;;5.55;3.50;;;;;;;;;;4974158;28;20050;-71
2022/07/23 06:08:32;;;;;;;7.13;3.70;;;;;;;;;;4973860;28;20031;-72
2022/07/23 06:10:57;;;;;;;9.68;3.33;;;;;;;;;;4973868;28;20026;-71
2022/07/23 06:13:23;;;;;;;6.15;3.40;;;;;;;;;;4973826;28;20031;-71
2022/07/23 06:15:50;;;;;;;6.90;2.75;;;;;;;;;;4973707;28;20481;-72
2022/07/23 06:18:16;;;;;;;3.33;2.60;;;;;;;;;;4973999;28;20529;-71
2022/07/23 06:20:42;;;;;;;6.40;2.67;;;;;;;;;;4973730;28;20612;-71
2022/07/23 06:23:08;;;;;;;4.03;2.50;;;;;;;;;;4974322;28;20069;-73
2022/07/23 06:25:34;;;;;;;4.05;2.10;;;;;;;;;;4977430;28;20058;-75
2022/07/23 06:28:00;;;;;;;4.32;2.47;;;;;;;;;;4977063;28;20027;-73
2022/07/23 06:30:26;;;;;;;5.35;2.60;;;;;;;;;;4977329;28;20031;-72
2022/07/23 06:32:52;;;;;;;4.45;2.20;;;;;;;;;;4976993;28;20031;-73
2022/07/23 06:35:18;;;;;;;4.65;2.15;;;;;;;;;;4976936;28;20162;-73
2022/07/23 06:37:44;;;;;;;5.07;2.42;;;;;;;;;;4977212;28;20062;-72
2022/07/23 06:40:10;;;;;;;5.70;2.20;;;;;;;;;;4977194;28;20097;-72
2022/07/23 06:42:39;;;;;;;5.10;2.30;;;;;;;;;;4976868;28;20033;-72
2022/07/23 06:45:06;;;;;;;3.92;2.10;;;;;;;;;;4976772;28;20022;-74
2022/07/23 06:47:33;;;;;;;4.50;2.37;;;;;;;;;;4977040;28;20031;-75
2022/07/23 06:49:59;;;;;;;5.57;2.10;;;;;;;;;;4976967;28;20030;-73
2022/07/23 06:52:26;;;;;;;5.50;2.28;;;;;;;;;;4977445;28;20389;-74
2022/07/23 06:54:52;;;;;;;4.00;2.53;;;;;;;;;;4976604;28;20105;-72
2022/07/23 06:57:18;;;;;;;4.38;1.95;;;;;;;;;;4959214;28;20034;-73
2022/07/23 06:59:44;;;;;;;5.05;3.03;;;;;;;;;;4976719;28;20073;-71
2022/07/23 07:02:10;;;;;;;4.20;2.15;;;;;;;;;;4976483;28;20030;-73
2022/07/23 07:04:36;;;;;;;4.28;2.20;;;;;;;;;;4976072;28;20101;-73
2022/07/23 07:07:02;;;;;;;6.35;2.08;;;;;;;;;;4976445;28;20023;-71
2022/07/23 07:09:28;;;;;;;6.80;2.35;;;;;;;;;;4976400;28;20015;-71
2022/07/23 07:11:54;;;;;;;4.40;2.10;;;;;;;;;;4976339;28;20161;-71
2022/07/23 07:14:20;;;;;;;4.25;2.63;;;;;;;;;;4976319;28;20015;-71
2022/07/23 07:16:46;;;;;;;4.55;2.03;;;;;;;;;;4976193;28;20031;-72
2022/07/23 07:19:12;;;;;;;4.32;2.15;;;;;;;;;;4958860;28;20019;-71
2022/07/23 07:21:38;;;;;;;4.70;2.25;;;;;;;;;;4976165;28;20037;-73
2022/07/23 07:24:05;;;;;;;5.85;2.35;;;;;;;;;;4976163;28;20023;-73
2022/07/23 07:26:31;;;;;;;3.25;2.13;;;;;;;;;;4976595;28;20031;-72
2022/07/23 07:28:57;;;;;;;5.72;2.33;;;;;;;;;;4976061;28;20027;-74
2022/07/23 07:31:23;;;;;;;3.05;2.10;;;;;;;;;;4976020;28;20464;-72
2022/07/23 07:33:49;;;;;;;4.93;2.60;;;;;;;;;;4975522;28;20058;-71
2022/07/23 07:36:15;;;;;;;4.35;2.35;;;;;;;;;;4975756;28;20023;-72
2022/07/23 07:38:41;;;;;;;3.13;1.92;;;;;;;;;;4975833;28;20023;-74
2022/07/23 07:41:09;;;;;;;2.60;2.25;;;;;;;;;;4975808;28;20077;-72
2022/07/23 07:43:35;;;;;;;3.92;2.40;;;;;;;;;;4975792;28;20022;-72
2022/07/23 07:46:01;;;;;;;4.25;2.22;;;;;;;;;;4975689;28;20114;-73
2022/07/23 07:48:27;;;;;;;5.10;2.38;;;;;;;;;;4975659;28;20030;-73
2022/07/23 07:50:53;;;;;;;5.68;2.10;;;;;;;;;;4976102;28;20038;-74
2022/07/23 07:53:20;;;;;;;4.47;2.22;;;;;;;;;;4975563;28;20097;-73
2022/07/23 07:55:46;;;;;;;4.22;2.20;;;;;;;;;;4975444;28;20035;-72
2022/07/23 07:58:12;;;;;;;4.25;2.30;;;;;;;;;;4975507;28;20027;-72
2022/07/23 08:00:38;;;;;;;3.53;2.00;;;;;;;;;;4975321;28;20476;-73
2022/07/23 08:03:04;;;;;;;3.92;1.95;;;;;;;;;;4975155;28;20129;-72
2022/07/23 08:05:31;;;;;;;6.13;2.40;;;;;;;;;;4975344;28;20034;-74
2022/07/23 08:07:57;;;;;;;5.97;2.50;;;;;;;;;;4975284;28;20031;-72
2022/07/23 08:10:24;;;;;;;6.22;2.20;;;;;;;;;;4975251;28;20034;-74
2022/07/23 08:12:53;;;;;;;6.13;2.42;;;;;;;;;;4975218;28;20098;-73
2022/07/23 08:15:20;;;;;;;3.63;2.03;;;;;;;;;;4975097;28;20031;-72
2022/07/23 08:17:47;;;;;;;3.67;2.00;;;;;;;;;;4975371;28;20073;-72
2022/07/23 08:20:13;;;;;;;5.22;2.40;;;;;;;;;;4975322;28;20034;-73
2022/07/23 08:22:46;;;;;;;3.58;1.80;;;;;;;;;;4975005;28;20102;-75
2022/07/23 08:25:13;;;;;;;3.55;2.20;;;;;;;;;;4957675;28;20031;-72
2022/07/23 08:27:39;;;;;;;4.38;1.80;;;;;;;;;;4975198;28;20053;-73
2022/07/23 08:30:05;;;;;;;4.13;1.83;;;;;;;;;;4974908;28;20541;-72
2022/07/23 08:32:31;;;;;;;4.95;1.83;;;;;;;;;;4975157;28;20015;-72
2022/07/23 08:34:57;;;;;;;2.17;1.52;;;;;;;;;;4974780;28;20045;-73
2022/07/23 08:37:23;;;;;;;3.67;1.75;;;;;;;;;;4974818;28;20019;-72
2022/07/23 08:39:49;;;;;;;2.75;1.67;;;;;;;;;;4975084;28;20155;-73
2022/07/23 08:42:15;;;;;;;3.55;1.70;;;;;;;;;;4957412;28;20493;-73
2022/07/23 08:44:45;;;;;;;4.47;1.73;;;;;;;;;;4974734;28;20027;-72
2022/07/23 08:47:12;;;;;;;2.70;1.50;;;;;;;;;;4974411;28;20485;-73
2022/07/23 08:49:38;;;;;;;3.22;1.40;;;;;;;;;;4974674;28;20080;-73
2022/07/23 08:52:05;;;;;;;2.75;1.50;;;;;;;;;;4975112;28;20022;-75
2022/07/23 08:54:31;;;;;;;2.85;1.73;;;;;;;;;;4957184;28;20081;-74
2022/07/23 08:56:57;;;;;;;2.22;1.52;;;;;;;;;;4974465;28;20030;-72
2022/07/23 08:59:26;;;;;;;2.60;1.30;;;;;;;;;;4974430;28;20031;-72
2022/07/23 09:01:52;;;;;;;4.57;1.52;;;;;;;;;;4974535;28;20034;-73
2022/07/23 09:04:18;;;;;;;2.80;1.58;;;;;;;;;;4974152;28;20049;-73
2022/07/23 09:06:45;;;;;;;1.92;1.45;;;;;;;;;;4974433;28;20042;-72
2022/07/23 09:09:20;;;;;;;2.83;1.20;;;;;;;;;;4974358;28;20035;-71
2022/07/23 09:11:46;;;;;;;4.00;1.50;;;;;;;;;;4974574;28;20026;-74
2022/07/23 09:14:12;;;;;;;2.20;1.50;;;;;;;;;;4974340;28;20477;-73
2022/07/23 09:16:39;;;;;;;4.20;1.77;;;;;;;;;;4974211;28;20469;-74
2022/07/23 09:19:06;;;;;;;3.28;1.65;;;;;;;;;;4974591;28;20500;-73
2022/07/23 09:21:36;;;;;;;2.05;1.40;;;;;;;;;;4974313;28;20101;-73
2022/07/23 09:24:15;;;;;;;3.83;1.60;;;;;;;;;;4974769;28;20027;-75
2022/07/23 09:26:46;;;;;;;2.53;1.50;;;;;;;;;;4956726;28;20026;-73
2022/07/23 09:29:20;;;;;;;2.53;1.38;;;;;;;;;;4974176;28;20034;-75
2022/07/23 09:31:46;;;;;;;1.75;1.27;;;;;;;;;;4974159;28;20031;-73
2022/07/23 09:34:12;;;;;;;2.05;1.30;;;;;;;;;;4974102;28;20033;-74
2022/07/23 09:36:39;;;;;;;2.13;1.42;;;;;;;;;;4974123;28;20027;-74
2022/07/23 09:39:06;;;;;;;4.00;1.50;;;;;;;;;;4974165;28;20027;-73
2022/07/23 09:41:42;;;;;;;3.40;1.33;;;;;;;;;;4974115;28;20116;-74
2022/07/23 09:44:19;;;;;;;2.65;1.33;;;;;;;;;;4974094;28;20034;-72
2022/07/23 09:46:48;;;;;;;3.42;1.50;;;;;;;;;;4974067;28;20057;-74
2022/07/23 09:49:22;;;;;;;1.73;1.25;;;;;;;;;;4974038;28;20043;-72
2022/07/23 09:51:56;;;;;;;3.08;1.55;;;;;;;;;;4957197;28;20027;-75
2022/07/23 09:54:22;;;;;;;2.08;1.55;;;;;;;;;;4974011;28;20030;-73
2022/07/23 09:56:49;;;;;;;2.33;1.45;;;;;;;;;;4974252;28;20031;-73
2022/07/23 09:59:17;;;;;;;3.25;1.42;;;;;;;;;;4977545;28;20027;-74
2022/07/23 10:01:44;;;;;;;2.20;1.30;;;;;;;;;;4977449;28;20050;-73
2022/07/23 10:04:11;;;;;;;2.10;1.30;;;;;;;;;;4977113;28;20054;-75
2022/07/23 10:06:38;;;;;;;2.05;1.30;;;;;;;;;;4978076;28;20031;-75
2022/07/23 10:09:04;;;;;;;2.05;1.40;;;;;;;;;;4977476;28;20027;-74
2022/07/23 10:11:31;;;;;;;1.95;1.20;;;;;;;;;;4977414;28;20037;-74
2022/07/23 10:13:59;;;;;;;4.50;1.80;;;;;;;;;;4977687;28;20022;-71
2022/07/23 10:16:26;;;;;;;2.97;1.40;;;;;;;;;;4977592;28;20054;-73
2022/07/23 10:18:52;;;;;;;1.98;1.30;;;;;;;;;;4977839;28;20477;-75
2022/07/23 10:21:37;;;;;;;2.28;1.38;;;;;;;;;;4977556;28;20027;-72
2022/07/23 10:24:21;;;;;;;3.30;1.40;;;;;;;;;;4959878;28;20070;-72
2022/07/23 10:27:06;;;;;;;2.92;1.20;;;;;;;;;;4977161;28;20035;-73
2022/07/23 10:29:38;;;;;;;2.50;1.63;;;;;;;;;;4977694;28;20030;-73
2022/07/23 10:32:15;;;;;;;1.95;1.48;;;;;;;;;;4977332;28;20027;-73
2022/07/23 10:34:41;;;;;;;2.38;1.30;;;;;;;;;;4977386;28;20058;-72
2022/07/23 10:37:08;;;;;;;2.85;1.38;;;;;;;;;;4976895;28;20370;-71
2022/07/23 10:39:35;;;;;;;2.35;1.30;;;;;;;;;;4959663;28;20034;-74
2022/07/23 10:42:14;;;;;;;2.28;1.65;;;;;;;;;;4976965;28;20034;-71
2022/07/23 10:44:42;;;;;;;5.65;1.38;;;;;;;;;;4977176;28;20034;-73
2022/07/23 10:49:54;;;;;;;2.10;1.10;;;;;;;;;;4977105;28;20038;-74
2022/07/23 10:52:21;;;;;;;3.80;1.65;;;;;;;;;;4977227;28;20023;-72
2022/07/23 10:54:51;;;;;;;2.90;1.45;;;;;;;;;;4976966;28;20035;-72
2022/07/23 10:57:27;;;;;;;9.27;2.30;;;;;;;;;;4976609;28;20031;-73
2022/07/23 11:00:14;;;;;;;1.73;1.38;;;;;;;;;;4976584;28;20042;-73
2022/07/23 11:02:45;;;;;;;1.95;1.35;;;;;;;;;;4976835;28;20022;-72
2022/07/23 11:05:15;;;;;;;4.38;1.52;;;;;;;;;;4976985;28;20046;-73
2022/07/23 11:08:00;;;;;;;3.05;1.40;;;;;;;;;;4976425;28;20389;-71
2022/07/23 11:10:36;;;;;;;2.22;1.58;;;;;;;;;;4975574;28;20030;-71
2022/07/23 11:13:21;;;;;;;5.25;1.80;;;;;;;;;;4976643;28;20030;-74
2022/07/23 11:16:05;;;;;;;2.05;1.30;;;;;;;;;;4958740;28;20510;-71
2022/07/23 11:18:40;;;;;;;1.75;1.60;;;;;;;;;;4976693;28;20019;-74
2022/07/23 11:21:28;;;;;;;2.00;1.40;;;;;;;;;;4976251;28;20102;-73
2022/07/23 11:23:58;;;;;;;2.50;1.30;;;;;;;;;;4976217;28;20429;-73
2022/07/23 11:26:42;;;;;;;1.38;1.25;;;;;;;;;;4976675;28;20030;-71
2022/07/23 11:29:26;;;;;;;1.50;1.40;;;;;;;;;;4976583;28;20030;-73
2022/07/23 11:31:56;;;;;;;3.40;1.45;;;;;;;;;;4958620;28;20520;-73
2022/07/23 11:34:41;;;;;;;3.58;1.27;;;;;;;;;;4976182;28;20031;-73
2022/07/23 11:37:09;;;;;;;1.73;1.25;;;;;;;;;;4975818;28;20397;-73
2022/07/23 11:39:35;;;;;;;2.15;1.20;;;;;;;;;;4975820;28;20085;-72
2022/07/23 11:42:06;;;;;;;1.58;1.10;;;;;;;;;;4975799;28;20023;-73
2022/07/23 11:44:32;;;;;;;1.52;1.27;;;;;;;;;;4976331;28;20050;-74
2022/07/23 11:47:05;;;;;;;2.28;1.08;;;;;;;;;;4976209;28;20078;-71
2022/07/23 11:49:31;;;;;;;1.92;1.20;;;;;;;;;;4975632;28;20058;-73
2022/07/23 11:52:06;;;;;;;2.53;1.30;;;;;;;;;;4976419;28;20031;-72
2022/07/23 11:54:33;;;;;;;1.55;1.30;;;;;;;;;;4975593;28;20066;-73
2022/07/23 11:57:00;;;;;;;1.10;1.00;;;;;;;;;;4975452;28;20077;-73
2022/07/23 11:59:31;;;;;;;1.27;1.10;;;;;;;;;;4975668;28;20031;-72
2022/07/23 12:02:01;;;;;;;2.03;1.33;;;;;;;;;;4975428;28;20023;-72
2022/07/23 12:04:39;;;;;;;1.77;1.30;;;;;;;;;;4974978;28;20071;-72
2022/07/23 12:07:23;;;;;;;2.33;1.25;;;;;;;;;;4975643;28;20027;-75
2022/07/23 12:09:49;;;;;;;3.53;1.20;;;;;;;;;;4975571;28;20038;-72
2022/07/23 12:12:15;;;;;;;1.25;1.00;;;;;;;;;;4975496;28;20027;-71
2022/07/23 12:14:55;;;;;;;4.63;1.30;;;;;;;;;;4957790;28;20484;-74
2022/07/23 12:17:22;;;;;;;1.70;1.30;;;;;;;;;;4975615;28;20066;-71
2022/07/23 12:19:48;;;;;;;1.13;1.00;;;;;;;;;;4974927;28;20456;-73
2022/07/23 12:22:15;;;;;;;1.83;1.15;;;;;;;;;;4974944;28;20101;-72
2022/07/23 12:24:57;;;;;;;1.15;1.00;;;;;;;;;;4975571;28;20045;-72
2022/07/23 12:27:24;;;;;;;1.10;1.00;;;;;;;;;;4975852;28;20027;-71
2022/07/23 12:29:50;;;;;;;1.20;1.00;;;;;;;;;;4974915;28;20030;-73
2022/07/23 12:32:20;;;;;;;1.55;1.00;;;;;;;;;;4974989;28;20397;-73
2022/07/23 12:34:46;;;;;;;2.33;1.10;;;;;;;;;;4957501;28;20034;-73
2022/07/23 12:37:28;;;;;;;2.25;1.20;;;;;;;;;;4974777;28;20034;-73
2022/07/23 12:39:54;;;;;;;0.98;0.98;;;;;;;;;;4975064;28;20539;-71
2022/07/23 12:42:20;;;;;;;4.30;1.10;;;;;;;;;;4974986;28;20023;-73
2022/07/23 12:45:05;;;;;;;2.78;1.13;;;;;;;;;;4974738;28;20030;-75
2022/07/23 12:47:31;;;;;;;0.85;0.85;;;;;;;;;;4975259;28;20034;-72
2022/07/23 12:49:57;;;;;;;2.53;1.00;;;;;;;;;;4974939;28;20027;-72
2022/07/23 12:52:23;;;;;;;3.00;1.15;;;;;;;;;;4957794;28;20026;-74
2022/07/23 12:54:49;;;;;;;1.20;1.08;;;;;;;;;;4974588;28;20031;-72
2022/07/23 12:57:15;;;;;;;2.60;1.20;;;;;;;;;;4974519;28;20078;-73
2022/07/23 12:59:41;;;;;;;2.47;1.20;;;;;;;;;;4957138;28;20026;-75
2022/07/23 13:02:08;;;;;;;1.38;1.27;;;;;;;;;;4974755;28;20022;-73
2022/07/23 13:04:34;;;;;;;2.47;1.25;;;;;;;;;;4974077;28;20051;-73
2022/07/23 13:07:01;;;;;;;1.20;1.10;;;;;;;;;;4974468;28;20481;-73
2022/07/23 13:09:28;;;;;;;1.70;1.20;;;;;;;;;;4974586;28;20030;-73
2022/07/23 13:11:55;;;;;;;2.15;1.42;;;;;;;;;;4974360;28;20027;-74
2022/07/23 13:14:21;;;;;;;1.45;1.20;;;;;;;;;;4974327;28;20485;-72
2022/07/23 13:16:47;;;;;;;1.40;1.20;;;;;;;;;;4974503;28;20389;-74
2022/07/23 13:19:15;;;;;;;1.63;1.30;;;;;;;;;;4974301;28;20436;-73
2022/07/23 13:21:42;;;;;;;2.78;1.30;;;;;;;;;;4974342;28;20393;-72
2022/07/23 13:24:09;;;;;;;2.15;1.20;;;;;;;;;;4974308;28;20027;-73
2022/07/23 13:26:35;;;;;;;1.40;1.30;;;;;;;;;;4974306;28;20031;-74
2022/07/23 13:29:01;;;;;;;2.53;1.40;;;;;;;;;;4974264;28;20082;-72
2022/07/23 13:31:27;;;;;;;2.47;1.30;;;;;;;;;;4974218;28;20137;-74
2022/07/23 13:33:53;;;;;;;2.28;1.20;;;;;;;;;;4977360;28;20485;-72
2022/07/23 13:36:19;;;;;;;1.80;1.10;;;;;;;;;;4978016;28;20042;-73
2022/07/23 13:38:45;;;;;;;1.42;1.33;;;;;;;;;;4978308;28;20367;-73
2022/07/23 13:41:11;;;;;;;1.52;1.27;;;;;;;;;;4978007;28;20110;-72
2022/07/23 13:43:37;;;;;;;1.58;1.30;;;;;;;;;;4978489;28;20058;-75
2022/07/23 13:46:03;;;;;;;2.05;1.17;;;;;;;;;;4977843;28;20135;-71
2022/07/23 13:48:29;;;;;;;2.05;1.40;;;;;;;;;;4977831;28;20043;-73
2022/07/23 13:50:56;;;;;;;2.22;1.17;;;;;;;;;;4977907;28;20061;-73
2022/07/23 13:53:23;;;;;;;1.83;1.27;;;;;;;;;;4978357;28;20027;-73
2022/07/23 13:55:50;;;;;;;2.35;1.20;;;;;;;;;;4977694;28;20126;-75
2022/07/23 13:58:17;;;;;;;2.35;1.20;;;;;;;;;;4977753;28;20082;-72
2022/07/23 14:00:44;;;;;;;1.48;1.38;;;;;;;;;;4977630;28;20022;-72
2022/07/23 14:03:10;;;;;;;2.13;1.20;;;;;;;;;;4977433;28;20058;-73
2022/07/23 14:05:36;;;;;;;1.67;1.40;;;;;;;;;;4977631;28;20031;-72
2022/07/23 14:08:03;;;;;;;2.90;1.40;;;;;;;;;;4977572;28;20037;-72
2022/07/23 14:10:29;;;;;;;1.77;1.30;;;;;;;;;;4977530;28;20034;-74
2022/07/23 14:12:57;;;;;;;1.38;1.25;;;;;;;;;;4977720;28;20035;-72
2022/07/23 14:15:24;;;;;;;1.50;1.33;;;;;;;;;;4977252;28;20033;-73
2022/07/23 14:17:50;;;;;;;1.33;1.10;;;;;;;;;;4977599;28;20500;-73
2022/07/23 14:20:16;;;;;;;1.40;1.27;;;;;;;;;;4977308;28;20390;-72
2022/07/23 14:22:43;;;;;;;1.63;1.30;;;;;;;;;;4977270;28;20026;-72
2022/07/23 14:25:10;;;;;;;2.15;1.20;;;;;;;;;;4977301;28;20030;-72
2022/07/23 14:27:37;;;;;;;1.65;1.42;;;;;;;;;;4959737;28;20481;-71
2022/07/23 14:30:03;;;;;;;3.17;1.30;;;;;;;;;;4977101;28;20019;-72
2022/07/23 14:32:29;;;;;;;2.97;1.48;;;;;;;;;;4977245;28;20057;-73
2022/07/23 14:34:55;;;;;;;2.38;1.40;;;;;;;;;;4977021;28;20478;-72
2022/07/23 14:37:21;;;;;;;1.75;1.52;;;;;;;;;;4976890;28;20037;-73
2022/07/23 14:39:48;;;;;;;1.55;1.38;;;;;;;;;;4977007;28;20019;-72
2022/07/23 14:42:14;;;;;;;1.65;1.55;;;;;;;;;;4976947;28;20030;-72
2022/07/23 14:44:42;;;;;;;1.30;1.20;;;;;;;;;;4976189;28;20086;-73
2022/07/23 14:47:09;;;;;;;2.03;1.58;;;;;;;;;;4976866;28;20082;-73